Flight Track Log - Related Links

Times and Time Zones

All times are in EST time to prevent confusion due to time zone crossing. See the SET1695 flight status page for this flight to view local times or setup timezone preferences in your user account.

Time Position Orientation Groundspeed Altitude Reporting Facility
EST Latitude Longitude Course Direction KTS MPH feet Rate Location/Type
Wed 12:57:00 AM 34.9318 135.7176 57° Northeast  Level Estimated
Wed 12:58:00 AM 34.9804 135.8110 58° Northeast  Level Estimated
Wed 12:59:00 AM 35.0289 135.9044 58° Northeast  Level Estimated
Wed 01:00:00 AM 35.0773 135.9980 58° Northeast  Level Estimated
Wed 01:01:00 AM 35.1257 136.0917 58° Northeast  Level Estimated
Wed 01:02:00 AM 35.1740 136.1855 58° Northeast  Level Estimated
Wed 01:03:00 AM 35.2223 136.2794 58° Northeast  Level Estimated
Wed 01:04:00 AM 35.2704 136.3734 58° Northeast  Level Estimated
Wed 01:05:00 AM 35.3185 136.4675 58° Northeast  Level Estimated
Wed 01:06:00 AM 35.3665 136.5618 58° Northeast  Level Estimated
Wed 01:07:00 AM 35.4145 136.6561 58° Northeast  Level Estimated
Wed 01:08:00 AM 35.4623 136.7506 58° Northeast  Level Estimated
Wed 01:09:00 AM 35.5102 136.8452 58° Northeast  Level Estimated
Wed 01:10:00 AM 35.5579 136.9399 58° Northeast  Level Estimated
Wed 01:11:00 AM 35.6055 137.0347 58° Northeast  Level Estimated
Wed 01:12:00 AM 35.6531 137.1296 58° Northeast  Level Estimated
Wed 01:13:00 AM 35.7006 137.2246 58° Northeast  Level Estimated
Wed 01:14:00 AM 35.7480 137.3197 58° Northeast  Level Estimated
Wed 01:15:00 AM 35.7954 137.4150 58° Northeast  Level Estimated
Wed 01:16:00 AM 35.8427 137.5104 59° Northeast  Level Estimated
Wed 01:17:00 AM 35.8899 137.6059 59° Northeast  Level Estimated
Wed 01:18:00 AM 35.9370 137.7015 59° Northeast  Level Estimated
Wed 01:19:00 AM 35.9840 137.7972 59° Northeast  Level Estimated
Wed 01:20:00 AM 36.0310 137.8930 59° Northeast  Level Estimated
Wed 01:21:00 AM 36.0779 137.9889 59° Northeast  Level Estimated
Wed 01:22:00 AM 36.1247 138.0850 59° Northeast  Level Estimated
Wed 01:23:00 AM 36.1715 138.1812 59° Northeast  Level Estimated
Wed 01:24:00 AM 36.2181 138.2774 59° Northeast  Level Estimated
Wed 01:25:00 AM 36.2647 138.3738 59° Northeast  Level Estimated
Wed 01:26:00 AM 36.3112 138.4704 59° Northeast  Level Estimated
Wed 01:27:00 AM 36.3577 138.5670 59° Northeast  Level Estimated
Wed 01:28:00 AM 36.4040 138.6637 59° Northeast  Level Estimated
Wed 01:29:00 AM 36.4503 138.7606 59° Northeast  Level Estimated
Wed 01:30:00 AM 36.4965 138.8575 59° Northeast  Level Estimated
Wed 01:31:00 AM 36.5426 138.9546 59° Northeast  Level Estimated
Wed 01:32:00 AM 36.5887 139.0518 59° Northeast  Level Estimated
Wed 01:33:00 AM 36.6346 139.1492 60° Northeast  Level Estimated
Wed 01:34:00 AM 36.6805 139.2466 60° Northeast  Level Estimated
Wed 01:35:00 AM 36.7263 139.3442 60° Northeast  Level Estimated
Wed 01:36:00 AM 36.7720 139.4418 60° Northeast  Level Estimated
Wed 01:37:00 AM 36.8177 139.5396 60° Northeast  Level Estimated
Wed 01:38:00 AM 36.8632 139.6375 60° Northeast  Level Estimated
Wed 01:39:00 AM 36.9087 139.7355 60° Northeast  Level Estimated
Wed 01:40:00 AM 36.9541 139.8337 60° Northeast  Level Estimated
Wed 01:41:00 AM 36.9994 139.9319 60° Northeast  Level Estimated
Wed 01:42:00 AM 37.0447 140.0303 60° Northeast  Level Estimated
Wed 01:43:00 AM 37.0898 140.1288 60° Northeast  Level Estimated
Wed 01:44:00 AM 37.1349 140.2274 60° Northeast  Level Estimated
Wed 01:45:00 AM 37.1799 140.3261 60° Northeast  Level Estimated
Wed 01:46:00 AM 37.2248 140.4250 60° Northeast  Level Estimated
Wed 01:47:00 AM 37.2274 140.4307 60° Northeast  Level Estimated
Wed 01:48:00 AM 37.2274 140.4307 302° West  Level Estimated
Wed 01:49:00 AM 37.2274 140.4307 302° West  Level Estimated
Wed 01:50:00 AM 37.2274 140.4307 302° West  Level Estimated
Wed 01:51:00 AM 37.2274 140.4307 302° West  Level Estimated
Wed 01:52:00 AM 37.2274 140.4307 302° West  Level Estimated
Wed 01:53:00 AM 37.2274 140.4307 302° West  Level Estimated
Wed 01:54:00 AM 37.2274 140.4307 302° West  Level Estimated
Wed 01:55:00 AM 37.2274 140.4307 302° West  Level Estimated
Wed 01:56:00 AM 37.2274 140.4307 302° West  Level Estimated
Wed 01:57:00 AM 37.2274 140.4307 302° West  Level Estimated
Wed 01:58:00 AM 37.2274 140.4307 302° West  Level Estimated

Login

Don't have an account? Register now (free) for customized features, flight alerts, and more!